createdAt,value
2018-01-11T00:01:00.102Z,84.72
2018-01-11T00:03:27.988Z,81.72
2018-01-11T00:05:55.863Z,85.12
2018-01-11T00:08:27.384Z,83.53
2018-01-11T00:10:55.308Z,88.40
2018-01-11T00:13:23.160Z,85.97
2018-01-11T00:15:51.036Z,76.32
2018-01-11T00:18:18.901Z,77.45
2018-01-11T00:20:46.768Z,80.50
2018-01-11T00:23:14.720Z,78.55
2018-01-11T00:25:42.592Z,85.40
2018-01-11T00:28:16.678Z,66.68
2018-01-11T00:30:44.648Z,90.25
2018-01-11T00:33:12.521Z,81.50
2018-01-11T00:35:40.383Z,77.57
2018-01-11T00:41:13.005Z,74.75
2018-01-11T00:43:40.877Z,75.22
2018-01-11T00:46:08.819Z,74.30
2018-01-11T00:48:36.715Z,79.20
2018-01-11T00:51:04.605Z,76.37
2018-01-11T00:53:32.457Z,86.30
2018-01-11T00:56:00.320Z,69.15
2018-01-11T00:58:28.199Z,82.75
2018-01-11T01:00:56.061Z,71.35
2018-01-11T01:03:23.916Z,76.35
2018-01-11T01:05:51.768Z,77.25
2018-01-11T01:08:19.603Z,77.85
2018-01-11T01:10:47.484Z,63.55
2018-01-11T01:13:15.383Z,71.35
2018-01-11T01:15:43.348Z,72.78
2018-01-11T01:18:11.262Z,74.85
2018-01-11T01:20:39.152Z,78.45
2018-01-11T01:23:07.033Z,72.22
2018-01-11T01:25:34.914Z,72.75
2018-01-11T01:28:02.794Z,72.87
2018-01-11T01:30:30.632Z,83.25
2018-01-11T01:32:58.501Z,73.15
2018-01-11T01:35:26.397Z,71.30
2018-01-11T01:37:54.272Z,76.65
2018-01-11T01:40:22.151Z,71.18
2018-01-11T01:42:50.040Z,73.97
2018-01-11T01:45:17.906Z,69.10
2018-01-11T01:47:45.768Z,86.22
2018-01-11T01:50:13.635Z,74.70
2018-01-11T01:52:41.512Z,71.65
2018-01-11T01:55:09.417Z,70.57
2018-01-11T01:57:37.341Z,72.20
2018-01-11T02:00:05.231Z,67.87
2018-01-11T02:02:33.148Z,67.37
2018-01-11T02:05:01.014Z,68.68
2018-01-11T02:07:28.896Z,77.65
2018-01-11T02:09:56.756Z,68.68
2018-01-11T02:12:24.671Z,72.47
2018-01-11T02:14:52.552Z,76.78
2018-01-11T02:17:20.417Z,77.00
2018-01-11T02:19:48.304Z,74.35
2018-01-11T02:22:16.165Z,72.25
2018-01-11T02:24:44.035Z,72.45
2018-01-11T02:27:11.872Z,65.03
2018-01-11T02:29:39.760Z,76.43
2018-01-11T02:32:07.628Z,68.90
2018-01-11T02:34:35.495Z,75.03
2018-01-11T02:40:06.389Z,69.18
2018-01-11T02:42:34.249Z,69.40
2018-01-11T02:47:35.824Z,77.43
2018-01-11T02:50:03.687Z,79.25
2018-01-11T02:52:32.677Z,67.62
2018-01-11T02:56:35.906Z,70.43
2018-01-11T02:59:04.556Z,73.12
2018-01-11T03:01:32.414Z,70.30
2018-01-11T03:04:00.289Z,71.05
2018-01-11T03:06:28.174Z,77.62
2018-01-11T03:08:56.054Z,75.32
2018-01-11T03:11:23.926Z,69.45
2018-01-11T03:13:51.785Z,79.85
2018-01-11T03:16:19.686Z,76.18
2018-01-11T03:18:47.533Z,82.07
2018-01-11T03:21:15.400Z,81.00
2018-01-11T03:23:43.280Z,67.32
2018-01-11T03:26:11.122Z,80.07
2018-01-11T03:28:39.011Z,77.90
2018-01-11T03:31:06.858Z,79.70
2018-01-11T03:33:34.731Z,82.25
2018-01-11T03:36:02.600Z,78.80
2018-01-11T03:38:30.459Z,90.43
2018-01-11T03:40:58.344Z,77.03
2018-01-11T03:43:26.197Z,77.65
2018-01-11T03:45:54.068Z,79.30
2018-01-11T03:48:21.929Z,77.40
2018-01-11T03:50:49.782Z,72.53
2018-01-11T03:53:17.655Z,83.15
2018-01-11T03:55:45.505Z,65.97
2018-01-11T03:58:13.413Z,70.45
2018-01-11T04:00:41.259Z,86.10
2018-01-11T04:03:09.148Z,75.57
2018-01-11T04:05:36.999Z,81.18
2018-01-11T04:08:04.857Z,74.43
2018-01-11T04:10:32.735Z,66.03
2018-01-11T04:13:00.612Z,78.18
2018-01-11T04:15:28.497Z,72.30
2018-01-11T04:17:56.348Z,74.10
2018-01-11T04:20:24.200Z,79.15
2018-01-11T04:22:52.065Z,71.25
2018-01-11T04:25:20.034Z,79.45
2018-01-11T04:27:47.898Z,71.85
2018-01-11T04:30:15.765Z,71.55
2018-01-11T04:32:43.633Z,76.75
2018-01-11T04:35:11.500Z,71.90
2018-01-11T04:37:39.369Z,75.30
2018-01-11T04:40:07.297Z,67.87
2018-01-11T04:42:35.205Z,75.47
2018-01-11T04:45:03.092Z,69.22
2018-01-11T04:50:33.610Z,69.65
2018-01-11T04:53:01.491Z,71.40
2018-01-11T04:55:29.345Z,72.78
2018-01-11T04:57:57.210Z,72.55
2018-01-11T05:00:25.076Z,80.30
2018-01-11T05:02:52.977Z,73.10
2018-01-11T05:05:20.875Z,82.53
2018-01-11T05:07:54.541Z,80.03
2018-01-11T05:10:22.432Z,70.12
2018-01-11T05:12:50.268Z,77.78
2018-01-11T05:15:18.280Z,73.80
2018-01-11T05:17:46.171Z,75.80
2018-01-11T05:20:14.010Z,70.68
2018-01-11T05:22:41.869Z,72.87
2018-01-11T05:25:09.739Z,71.75
2018-01-11T05:27:37.694Z,73.85
2018-01-11T05:30:06.200Z,74.72
2018-01-11T05:32:34.131Z,77.55
2018-01-11T05:35:02.068Z,77.43
2018-01-11T05:37:36.584Z,76.22
2018-01-11T05:40:04.505Z,73.93
2018-01-11T05:42:32.387Z,76.47
2018-01-11T05:45:00.238Z,75.12
2018-01-11T05:47:29.499Z,77.25
2018-01-11T05:49:57.691Z,75.87
2018-01-11T05:52:25.900Z,74.62
2018-01-11T05:54:53.865Z,76.12
2018-01-11T05:57:21.742Z,78.10
2018-01-11T05:59:49.604Z,79.12
2018-01-11T06:02:17.488Z,70.15
2018-01-11T06:04:45.341Z,72.97
2018-01-11T06:07:13.226Z,72.22
2018-01-11T06:09:41.088Z,84.75
2018-01-11T06:12:09.071Z,74.75
2018-01-11T06:14:37.027Z,75.93
2018-01-11T06:17:04.909Z,71.87
2018-01-11T06:19:32.768Z,75.25
2018-01-11T06:22:00.832Z,81.50
2018-01-11T06:24:28.762Z,78.95
2018-01-11T06:26:56.723Z,73.35
2018-01-11T06:29:24.638Z,76.53
2018-01-11T06:31:52.505Z,81.12
2018-01-11T06:46:18.090Z,75.20
2018-01-11T06:51:51.083Z,72.72
2018-01-11T07:00:19.637Z,82.43
2018-01-11T11:14:54.493Z,79.93
2018-01-11T15:42:18.049Z,96.93
2018-01-11T16:46:21.638Z,93.18
2018-01-11T18:08:44.784Z,68.20
2018-01-11T18:11:19.741Z,69.25
2018-01-11T18:13:47.608Z,61.30
2018-01-11T18:16:17.859Z,64.18
2018-01-11T18:18:49.791Z,57.10
2018-01-11T18:21:19.867Z,59.58
2018-01-11T18:23:56.732Z,62.30
2018-01-11T18:32:59.224Z,59.05
2018-01-11T18:35:27.645Z,58.22
2018-01-11T18:41:02.473Z,49.40
2018-01-11T18:49:31.886Z,53.17
2018-01-11T18:52:01.390Z,58.22
2018-01-11T18:54:44.805Z,52.65
2018-01-11T19:00:13.661Z,53.37
2018-01-11T19:08:33.267Z,51.67
2018-01-11T19:25:53.900Z,51.35
2018-01-11T19:31:28.609Z,48.97
2018-01-11T19:33:58.880Z,49.17
2018-01-11T19:42:07.702Z,56.85
2018-01-11T19:50:25.234Z,52.75
2018-01-11T19:52:54.944Z,54.78
2018-01-11T19:55:33.179Z,49.00
2018-01-11T20:04:08.084Z,55.78
2018-01-11T20:27:31.223Z,67.20
2018-01-11T20:36:10.601Z,79.45
2018-01-11T20:47:28.216Z,78.00
2018-01-11T20:52:45.555Z,89.87
2018-01-11T20:55:33.197Z,70.40
2018-01-11T20:58:05.857Z,87.32
2018-01-11T21:00:39.280Z,82.47
2018-01-11T21:03:10.699Z,67.12
2018-01-11T21:11:27.468Z,69.75
2018-01-11T21:16:50.057Z,66.68
2018-01-11T21:19:33.085Z,74.62
2018-01-11T21:24:56.626Z,71.95
2018-01-11T21:27:25.824Z,69.25
2018-01-11T21:32:48.688Z,72.85
2018-01-11T21:35:20.277Z,80.78
2018-01-11T21:40:31.526Z,82.35
2018-01-11T21:43:05.983Z,79.68
2018-01-11T21:45:34.377Z,86.60
2018-01-11T21:51:07.973Z,91.40
2018-01-11T21:56:33.333Z,89.70
2018-01-11T22:01:55.413Z,88.75
2018-01-11T22:04:26.879Z,93.95
2018-01-11T22:06:55.844Z,75.85
2018-01-11T22:09:24.096Z,84.35
